Melbourne International Airport
KMLB : rendu visible

Aérodrome :











RETROUVEZ-NOUS SUR...

 
LOGIN :

S'inscrire | Disclaimer

   EN    FR    IT 

 









Légende :    VFR   VFR Marginal   IFR   IFR Intensif   IFR Très Intensif
Visi : 
Plafond : 
>= 8 km
>= 3000ft
5 à 8 km
1000 à 3000 ft
1500m à 5 km
500 à 1000 ft
800 à 1500m
200 à 500 ft
< 800m
< 200 ft
Symboles :   Orages  Brouillard  Fortes neiges  Fortes précipitations  Vent > 20 kt






- Altitude de l'aérodrome : 33 ft
- Code IATA : MLB


KMLB - Melbourne International

DERNIER METAR :
  • 232053Z 10008KT 10SM CLR 22/10 A3016 RMK AO2 SLP211 T02170100 56011 $

METARs EXPIRÉS :
  • 231953Z 11009KT 10SM FEW060 22/10 A3017 RMK AO2 SLP214 T02170100 $
  • 231853Z 09008KT 10SM SCT043 22/12 A3017 RMK AO2 SLP216 T02220122 $
  • 231753Z 11009KT 10SM CLR 22/12 A3019 RMK AO2 SLP223 T02220122 10222 20111 58022 $

TAF KMLB
Valide du 23 à 18h jusqu'au 24 à 18h UTC


231726Z 2318/2418 11011KT P6SM FEW060
FM240000 13005KT P6SM FEW050
FM241500 14011KT P6SM SCT035 SCT250



MET'MAP, la Météo Aéronautique d'un coup d'oeil ! - Copyright ORBIFLY Décembre 2007 - Disclaimer

ORBIFLY MET'MAP TEAM :

Programmation & Développement : Alexandra Zaïnal
Sur une idée originale de : Baudouin d'Aumeries
Assistance à la programmation : Marc-Olivier Méhu
Soutien technique & logistique : Manuel Goepfert

Contact : metmap@orbifly.com




SOURCES & CREDITS :

   NOAA       Earth
Advisory